Time;durP1;ratioP1;P1;durP2;ratioP2;P2;SDS_P1;SDS_P2;PMS_P1;PMS_P2;Temp;Humidity;BMP_temperature;BMP_pressure;BME280_temperature;BME280_humidity;BME280_pressure;Samples;Min_cycle;Max_cycle;Signal;HPM_P1;HPM_P2
2022/11/29 00:01:14;;;;;;;12.17;7.90;;;7.50;67.60;;;;;;5109257;27;47086;-77
2022/11/29 00:03:40;;;;;;;13.97;8.30;;;7.40;67.70;;;;;;5109554;27;46397;-74
2022/11/29 00:06:08;;;;;;;10.13;7.30;;;7.40;68.00;;;;;;5109445;27;46271;-75
2022/11/29 00:08:34;;;;;;;13.83;7.20;;;7.40;68.10;;;;;;5110666;27;46401;-75
2022/11/29 00:12:10;;;;;;;12.57;7.17;;;7.40;68.20;;;;;;5108003;27;46488;-77
2022/11/29 00:14:00;;;;;;;10.20;7.33;;;7.40;68.30;;;;;;5107479;27;46700;-76
2022/11/29 00:16:26;;;;;;;13.40;7.37;;;7.40;68.50;;;;;;5111762;27;46490;-76
2022/11/29 00:18:51;;;;;;;9.87;6.43;;;7.40;68.40;;;;;;5107703;27;46487;-76
2022/11/29 00:21:20;;;;;;;11.27;6.60;;;7.40;68.50;;;;;;5111529;27;46467;-75
2022/11/29 00:23:46;;;;;;;14.37;6.13;;;7.30;69.60;;;;;;5112307;27;46475;-75
2022/11/29 00:26:11;;;;;;;12.27;6.80;;;7.40;68.70;;;;;;5111657;27;45795;-77
2022/11/29 00:28:37;;;;;;;16.67;7.70;;;7.30;68.70;;;;;;5110220;27;46361;-75
2022/11/29 00:31:18;;;;;;;9.57;6.73;;;7.30;68.80;;;;;;5114258;27;48014;-77
2022/11/29 00:33:44;;;;;;;13.77;7.10;;;7.30;68.80;;;;;;5112947;27;45945;-77
2022/11/29 00:36:10;;;;;;;10.33;6.50;;;7.30;68.90;;;;;;5141969;27;46441;-77
2022/11/29 00:38:36;;;;;;;12.53;6.80;;;7.20;68.90;;;;;;5112361;27;46057;-75
2022/11/29 00:41:01;;;;;;;9.73;6.23;;;7.20;69.10;;;;;;5110740;27;46596;-75
2022/11/29 00:43:27;;;;;;;11.67;6.10;;;7.20;69.30;;;;;;5110982;27;46487;-76
2022/11/29 00:45:52;;;;;;;13.57;6.53;;;7.20;68.50;;;;;;5110414;27;46399;-75
2022/11/29 00:48:18;;;;;;;11.30;7.03;;;7.20;69.60;;;;;;5113719;27;46244;-77
2022/11/29 00:50:44;;;;;;;12.20;7.40;;;7.20;69.60;;;;;;5109057;27;47876;-76
2022/11/29 00:53:10;;;;;;;10.17;6.67;;;7.20;69.60;;;;;;5112019;27;45756;-76
2022/11/29 00:55:35;;;;;;;14.20;7.13;;;7.20;69.80;;;;;;5112509;27;46418;-75
2022/11/29 00:58:01;;;;;;;9.50;6.63;;;7.20;69.70;;;;;;5110486;27;46798;-75
2022/11/29 01:00:27;;;;;;;10.67;5.73;;;7.20;69.70;;;;;;5110975;27;46391;-75
2022/11/29 01:02:52;;;;;;;10.03;6.47;;;7.30;69.80;;;;;;5110048;27;46498;-75
2022/11/29 01:05:21;;;;;;;18.73;6.80;;;7.20;69.70;;;;;;5108918;27;46398;-76
2022/11/29 01:07:47;;;;;;;11.80;6.80;;;7.20;69.80;;;;;;5114903;27;46380;-75
2022/11/29 01:10:12;;;;;;;7.37;6.10;;;7.30;69.90;;;;;;5109558;27;46631;-76
2022/11/29 01:12:38;;;;;;;11.27;6.80;;;7.30;69.90;;;;;;5110393;27;46448;-75
2022/11/29 01:15:05;;;;;;;13.03;6.10;;;7.30;70.00;;;;;;5106351;27;46426;-75
2022/11/29 01:17:33;;;;;;;9.37;5.63;;;7.30;70.00;;;;;;5106267;27;46535;-75
2022/11/29 01:19:59;;;;;;;11.13;6.77;;;7.30;70.20;;;;;;5108704;27;48369;-75
2022/11/29 01:22:24;;;;;;;11.80;6.73;;;7.30;70.30;;;;;;5112673;27;46322;-76
2022/11/29 01:24:50;;;;;;;9.87;6.03;;;7.30;70.20;;;;;;5109905;27;46531;-75
2022/11/29 01:27:16;;;;;;;10.80;6.13;;;7.30;70.30;;;;;;5115014;27;45922;-75
2022/11/29 01:29:41;;;;;;;12.87;6.47;;;7.30;70.30;;;;;;5114947;27;46352;-78
2022/11/29 01:32:07;;;;;;;9.80;5.67;;;7.30;70.30;;;;;;5110251;27;46416;-77
2022/11/29 01:34:32;;;;;;;10.40;6.37;;;7.30;70.40;;;;;;5115724;27;45914;-76
2022/11/29 01:36:58;;;;;;;8.73;5.97;;;7.30;70.60;;;;;;5110917;27;46392;-76
2022/11/29 01:39:24;;;;;;;10.57;5.73;;;7.20;70.60;;;;;;5114070;27;46352;-77
2022/11/29 01:41:49;;;;;;;9.67;7.20;;;7.20;70.60;;;;;;5114473;27;46648;-76
2022/11/29 01:44:15;;;;;;;13.23;6.80;;;7.20;70.90;;;;;;5111800;27;46444;-76
2022/11/29 01:46:42;;;;;;;11.77;6.70;;;7.20;69.90;;;;;;5113566;27;46642;-76
2022/11/29 01:49:23;;;;;;;7.73;5.87;;;7.20;71.10;;;;;;5112060;27;46458;-76
2022/11/29 01:51:57;;;;;;;9.73;6.13;;;7.20;71.00;;;;;;5111194;27;46427;-76
2022/11/29 01:54:22;;;;;;;10.50;6.37;;;7.20;71.10;;;;;;5111323;27;46144;-76
2022/11/29 01:56:50;;;;;;;10.83;6.77;;;7.20;71.20;;;;;;5111678;27;46541;-75
2022/11/29 01:59:19;;;;;;;9.93;6.87;;;7.20;71.10;;;;;;5108714;27;46229;-76
2022/11/29 02:01:44;;;;;;;12.20;7.17;;;7.10;71.20;;;;;;5114100;27;45882;-75
2022/11/29 02:04:11;;;;;;;10.50;6.30;;;7.10;71.20;;;;;;5110401;27;45935;-76
2022/11/29 02:06:38;;;;;;;11.23;6.93;;;7.10;71.40;;;;;;5109416;27;46414;-76
2022/11/29 02:09:15;;;;;;;12.50;6.80;;;7.10;71.70;;;;;;5142764;27;48053;-76
2022/11/29 02:11:46;;;;;;;11.20;7.33;;;7.00;71.80;;;;;;5112368;27;46442;-76
2022/11/29 02:14:20;;;;;;;10.13;6.13;;;7.00;71.90;;;;;;5113837;27;46432;-76
2022/11/29 02:17:02;;;;;;;10.77;7.60;;;7.10;72.20;;;;;;5114479;27;46400;-77
2022/11/29 02:19:45;;;;;;;9.97;6.90;;;7.10;71.90;;;;;;5113429;27;46425;-77
2022/11/29 02:22:36;;;;;;;10.53;6.50;;;7.10;71.90;;;;;;5098689;27;46630;-75
2022/11/29 02:25:31;;;;;;;10.53;6.63;;;7.10;71.90;;;;;;5110977;27;45852;-78
2022/11/29 02:28:40;;;;;;;9.97;6.13;;;7.20;71.70;;;;;;5114494;27;45917;-75
2022/11/29 02:31:26;;;;;;;11.67;6.93;;;7.20;71.70;;;;;;5111037;27;46692;-76
2022/11/29 02:33:58;;;;;;;10.80;7.07;;;7.20;71.60;;;;;;5111979;27;46456;-75
2022/11/29 02:36:48;;;;;;;8.40;6.40;;;7.30;71.40;;;;;;5095787;27;46282;-75
2022/11/29 02:39:22;;;;;;;10.90;6.70;;;7.30;71.30;;;;;;5111979;27;46416;-76
2022/11/29 02:42:09;;;;;;;9.10;6.20;;;7.30;71.40;;;;;;5092574;27;49257;-76
2022/11/29 02:44:53;;;;;;;9.27;6.73;;;7.30;71.30;;;;;;5108382;27;46954;-77
2022/11/29 02:47:36;;;;;;;10.00;6.67;;;7.40;71.60;;;;;;5109192;27;46411;-76
2022/11/29 02:50:30;;;;;;;10.27;6.40;;;7.40;71.40;;;;;;5108910;27;46533;-75
2022/11/29 02:53:18;;;;;;;10.30;6.80;;;7.40;71.30;;;;;;5111728;27;47520;-76
2022/11/29 02:56:32;;;;;;;10.80;7.60;;;7.40;70.30;;;;;;5105243;27;46381;-75
2022/11/29 02:59:19;;;;;;;12.03;7.10;;;7.40;71.30;;;;;;5092657;27;46479;-76
2022/11/29 03:02:10;;;;;;;11.40;7.13;;;7.40;71.30;;;;;;5111385;27;46350;-76
2022/11/29 03:05:08;;;;;;;12.07;7.20;;;7.40;71.40;;;;;;5110643;27;46607;-75
2022/11/29 03:07:50;;;;;;;9.80;6.90;;;7.40;71.50;;;;;;5142174;27;45966;-75
2022/11/29 03:10:37;;;;;;;9.27;6.70;;;7.40;71.70;;;;;;5107489;27;46431;-75
2022/11/29 03:13:09;;;;;;;12.30;7.00;;;7.40;71.70;;;;;;5126180;27;46374;-76
2022/11/29 03:15:56;;;;;;;11.60;8.00;;;7.40;71.60;;;;;;5109156;27;46583;-75
2022/11/29 03:18:59;;;;;;;10.90;7.00;;;7.40;71.50;;;;;;5110421;27;46423;-76
2022/11/29 03:21:46;;;;;;;10.10;6.60;;;7.50;71.50;;;;;;5113133;27;46333;-76
2022/11/29 03:24:39;;;;;;;10.13;6.87;;;7.50;71.40;;;;;;5113567;27;45986;-75
2022/11/29 03:27:15;;;;;;;9.37;6.57;;;7.50;71.40;;;;;;5102865;27;48926;-76
2022/11/29 03:29:55;;;;;;;10.57;6.33;;;7.50;72.40;;;;;;5111282;27;46622;-76
2022/11/29 03:32:40;;;;;;;10.53;6.80;;;7.50;71.10;;;;;;5109927;27;46529;-77
2022/11/29 03:35:19;;;;;;;9.03;6.40;;;7.50;71.20;;;;;;5109629;27;46538;-76
2022/11/29 03:38:38;;;;;;;11.87;7.33;;;7.40;71.40;;;;;;5111472;27;48538;-76
2022/11/29 03:41:32;;;;;;;10.43;6.63;;;7.50;71.40;;;;;;5112754;27;45823;-76
2022/11/29 03:44:19;;;;;;;11.10;7.00;;;7.40;71.40;;;;;;5113611;27;46641;-75
2022/11/29 03:47:11;;;;;;;9.03;6.77;;;7.40;71.60;;;;;;5113235;27;46703;-76
2022/11/29 03:50:10;;;;;;;10.53;6.73;;;7.40;71.70;;;;;;5109244;27;46804;-76
2022/11/29 03:53:00;;;;;;;15.63;6.80;;;7.40;71.70;;;;;;5108594;27;46444;-77
2022/11/29 03:55:59;;;;;;;9.43;6.90;;;7.40;71.70;;;;;;5110915;27;46437;-75
2022/11/29 03:58:54;;;;;;;9.33;5.80;;;7.40;71.80;;;;;;5110204;27;46428;-75
2022/11/29 04:01:41;;;;;;;10.47;6.57;;;7.40;71.70;;;;;;5098038;27;48522;-77
2022/11/29 04:04:25;;;;;;;12.47;8.03;;;7.50;71.60;;;;;;5096252;27;46431;-77
2022/11/29 04:06:59;;;;;;;8.70;6.57;;;7.50;71.70;;;;;;5093986;27;46574;-75
2022/11/29 04:10:02;;;;;;;11.43;7.00;;;7.50;71.50;;;;;;5112373;27;46446;-75
2022/11/29 04:12:52;;;;;;;10.50;6.07;;;7.50;71.30;;;;;;5109570;27;46371;-76
2022/11/29 04:15:23;;;;;;;9.70;7.10;;;7.50;71.40;;;;;;5105699;27;46245;-76
2022/11/29 04:18:20;;;;;;;8.50;5.73;;;7.50;71.30;;;;;;5110518;27;46682;-76
2022/11/29 04:20:56;;;;;;;9.70;7.00;;;7.60;71.40;;;;;;5107780;27;46423;-77
2022/11/29 04:23:48;;;;;;;16.63;7.07;;;7.60;71.40;;;;;;5111954;27;46510;-75
2022/11/29 04:26:57;;;;;;;9.67;6.87;;;7.60;71.30;;;;;;5106814;27;46398;-74
2022/11/29 04:29:48;;;;;;;9.63;7.10;;;7.60;71.30;;;;;;5109475;27;46346;-75
2022/11/29 04:32:52;;;;;;;10.53;7.33;;;7.60;71.30;;;;;;5108709;27;46424;-73
2022/11/29 04:35:39;;;;;;;30.10;14.70;;;7.60;71.30;;;;;;5107455;27;47038;-69
2022/11/29 04:38:38;;;;;;;32.90;15.30;;;7.60;71.30;;;;;;5103490;27;46591;-64
2022/11/29 04:41:30;;;;;;;18.63;10.10;;;7.60;71.20;;;;;;5102695;27;46416;-66
2022/11/29 04:44:40;;;;;;;11.87;7.63;;;7.70;70.90;;;;;;5091184;27;45878;-65
2022/11/29 04:47:29;;;;;;;11.10;7.10;;;7.70;70.70;;;;;;5109149;27;46573;-67
2022/11/29 04:50:30;;;;;;;9.50;7.10;;;7.70;70.70;;;;;;5108116;27;46773;-68
2022/11/29 04:53:13;;;;;;;9.43;6.60;;;7.70;70.70;;;;;;5084381;27;45890;-66
2022/11/29 04:55:42;;;;;;;11.30;7.73;;;7.80;70.80;;;;;;5139138;27;46747;-69
2022/11/29 04:58:34;;;;;;;9.70;7.20;;;7.80;70.80;;;;;;5108765;27;46791;-66
2022/11/29 05:01:22;;;;;;;14.07;8.30;;;7.80;70.70;;;;;;5110017;27;46299;-68
2022/11/29 05:04:12;;;;;;;14.10;8.90;;;7.90;70.70;;;;;;5105740;27;46051;-67
2022/11/29 05:07:03;;;;;;;14.23;8.17;;;7.90;70.70;;;;;;5110927;27;46427;-68
2022/11/29 05:09:31;;;;;;;12.90;8.43;;;7.90;70.60;;;;;;5108914;27;47194;-69
2022/11/29 05:12:24;;;;;;;14.80;8.90;;;7.90;70.80;;;;;;5106187;27;46422;-68
2022/11/29 05:15:07;;;;;;;17.23;8.73;;;7.90;70.60;;;;;;5109716;27;46578;-70
2022/11/29 05:17:59;;;;;;;29.57;16.27;;;7.90;70.70;;;;;;5106384;27;46400;-66
2022/11/29 05:20:37;;;;;;;12.50;8.80;;;8.00;70.70;;;;;;5074103;27;47513;-68
2022/11/29 05:23:25;;;;;;;15.73;8.97;;;8.00;70.60;;;;;;5106753;27;46368;-66
2022/11/29 05:26:11;;;;;;;12.50;8.40;;;8.00;69.90;;;;;;5104274;27;46436;-66
2022/11/29 05:28:43;;;;;;;13.40;8.50;;;8.00;70.90;;;;;;5104907;27;46609;-66
2022/11/29 05:31:23;;;;;;;13.80;7.57;;;8.10;70.80;;;;;;5112144;27;46642;-66
2022/11/29 05:34:19;;;;;;;17.90;9.47;;;8.00;70.50;;;;;;5087943;27;46340;-65
2022/11/29 05:37:02;;;;;;;16.30;9.27;;;8.00;70.70;;;;;;5106779;27;46350;-66
2022/11/29 05:39:52;;;;;;;14.50;9.87;;;8.00;70.80;;;;;;5106765;27;46220;-66
2022/11/29 05:42:36;;;;;;;14.30;9.10;;;8.00;70.80;;;;;;5110468;27;46477;-66
2022/11/29 05:45:28;;;;;;;12.63;9.17;;;8.00;70.90;;;;;;5103824;27;46439;-66
2022/11/29 05:48:12;;;;;;;20.33;10.10;;;8.00;70.80;;;;;;5106941;27;46214;-67
2022/11/29 05:50:49;;;;;;;13.93;9.40;;;8.00;70.70;;;;;;5104812;27;46342;-66
2022/11/29 05:53:32;;;;;;;15.13;10.13;;;8.00;70.70;;;;;;5103324;27;46476;-66
2022/11/29 05:56:00;;;;;;;17.40;10.53;;;8.00;69.80;;;;;;5101700;27;46312;-66
2022/11/29 05:58:43;;;;;;;15.93;11.20;;;8.00;71.00;;;;;;5105964;27;46712;-68
2022/11/29 06:01:25;;;;;;;15.53;11.30;;;8.00;70.80;;;;;;5108428;27;46345;-66
2022/11/29 06:04:12;;;;;;;15.93;10.60;;;8.00;71.50;;;;;;5107855;27;46374;-67
2022/11/29 06:06:57;;;;;;;15.13;10.80;;;8.10;71.60;;;;;;5108608;27;47394;-67
2022/11/29 06:09:30;;;;;;;18.53;12.13;;;8.10;71.40;;;;;;5105955;27;46486;-67
2022/11/29 06:12:12;;;;;;;16.00;10.57;;;8.10;71.30;;;;;;5105778;27;46609;-66
2022/11/29 06:15:03;;;;;;;15.43;9.43;;;8.10;71.10;;;;;;5107226;27;46636;-67
2022/11/29 06:18:02;;;;;;;16.30;11.43;;;8.20;70.80;;;;;;5104804;27;45896;-66
2022/11/29 06:20:40;;;;;;;17.30;10.50;;;8.20;70.70;;;;;;5109508;27;46425;-66
2022/11/29 06:23:18;;;;;;;18.60;12.23;;;8.20;70.80;;;;;;5126206;27;46300;-65
2022/11/29 06:26:10;;;;;;;15.50;10.50;;;8.20;70.00;;;;;;5105796;27;47350;-66
2022/11/29 06:29:08;;;;;;;18.30;11.43;;;8.20;71.20;;;;;;5103381;27;46518;-66
2022/11/29 06:31:43;;;;;;;20.80;10.90;;;8.30;71.40;;;;;;5076285;27;47019;-66
2022/11/29 06:34:08;;;;;;;20.27;11.40;;;8.30;71.40;;;;;;5107638;27;46741;-66
2022/11/29 06:36:47;;;;;;;16.20;11.10;;;8.30;71.50;;;;;;5105238;27;46409;-67
2022/11/29 06:39:13;;;;;;;15.30;11.20;;;8.30;71.60;;;;;;5106848;27;46406;-65
2022/11/29 06:41:38;;;;;;;14.40;10.10;;;8.30;71.70;;;;;;5104666;27;45837;-66
2022/11/29 06:44:04;;;;;;;17.13;11.97;;;8.40;71.90;;;;;;5106538;27;46392;-67
2022/11/29 06:46:36;;;;;;;16.57;11.47;;;8.40;71.90;;;;;;5106323;27;47346;-67
2022/11/29 06:49:10;;;;;;;16.17;10.90;;;8.40;71.90;;;;;;5107924;27;46430;-68
2022/11/29 06:51:56;;;;;;;16.17;11.13;;;8.50;72.00;;;;;;5105481;27;46611;-65
2022/11/29 06:54:32;;;;;;;18.60;10.70;;;8.50;71.90;;;;;;5105963;27;46231;-66
2022/11/29 06:57:29;;;;;;;19.23;11.33;;;8.50;71.90;;;;;;5103138;27;46511;-65
2022/11/29 07:00:10;;;;;;;19.67;11.47;;;8.50;71.80;;;;;;5106875;27;46462;-66
2022/11/29 07:02:51;;;;;;;17.07;12.00;;;8.50;71.80;;;;;;5103378;27;46456;-66
2022/11/29 07:05:32;;;;;;;19.90;14.13;;;8.50;72.00;;;;;;5105526;27;46382;-65
2022/11/29 07:08:02;;;;;;;17.63;12.27;;;8.50;72.00;;;;;;5109336;27;46717;-66
2022/11/29 07:10:30;;;;;;;17.40;11.77;;;8.60;72.90;;;;;;5105650;27;46123;-66
2022/11/29 07:12:56;;;;;;;16.80;11.67;;;8.70;73.00;;;;;;5108559;27;46414;-66
2022/11/29 07:15:23;;;;;;;16.33;11.80;;;8.70;72.60;;;;;;5107625;27;46567;-67
2022/11/29 07:18:06;;;;;;;16.67;11.70;;;8.80;72.40;;;;;;5105631;27;46375;-66
2022/11/29 07:21:07;;;;;;;17.60;11.10;;;8.80;72.40;;;;;;5107264;27;46388;-65
2022/11/29 07:23:34;;;;;;;18.47;10.83;;;8.80;72.30;;;;;;5107529;27;46456;-68
2022/11/29 07:26:20;;;;;;;15.70;10.10;;;8.80;71.20;;;;;;5113906;27;46418;-66
2022/11/29 07:28:57;;;;;;;16.47;10.60;;;8.80;72.20;;;;;;5100759;27;46446;-66
2022/11/29 07:31:49;;;;;;;16.93;10.93;;;8.80;72.20;;;;;;5107104;27;45873;-67
2022/11/29 07:34:26;;;;;;;15.90;11.20;;;8.90;72.10;;;;;;5079693;27;46118;-66
2022/11/29 07:37:04;;;;;;;16.30;11.13;;;8.90;72.10;;;;;;5105148;27;46489;-65
2022/11/29 07:39:38;;;;;;;17.30;11.70;;;8.90;72.00;;;;;;5106006;27;48582;-68
2022/11/29 07:42:13;;;;;;;14.17;10.90;;;9.00;72.10;;;;;;5106890;27;45847;-66
2022/11/29 07:44:55;;;;;;;14.80;10.63;;;9.00;71.80;;;;;;5102016;27;46950;-66
2022/11/29 07:47:21;;;;;;;13.37;9.57;;;9.10;71.90;;;;;;5102274;27;46014;-67
2022/11/29 07:49:47;;;;;;;15.20;10.67;;;9.10;72.00;;;;;;5107549;27;48267;-66
2022/11/29 07:52:14;;;;;;;15.53;11.47;;;9.10;71.90;;;;;;5104193;27;45864;-67
2022/11/29 07:54:40;;;;;;;16.70;10.70;;;9.10;71.80;;;;;;5105661;27;46427;-65
2022/11/29 07:57:05;;;;;;;17.00;11.37;;;9.20;71.90;;;;;;5104436;27;46773;-66
2022/11/29 07:59:31;;;;;;;17.60;12.20;;;9.20;71.80;;;;;;5102631;27;46565;-67
2022/11/29 08:01:57;;;;;;;16.20;10.33;;;9.20;71.80;;;;;;5103840;27;46324;-66
2022/11/29 08:04:23;;;;;;;15.03;10.83;;;9.20;71.90;;;;;;5104168;27;46389;-67
2022/11/29 08:06:48;;;;;;;15.87;11.07;;;9.20;72.00;;;;;;5104831;27;46545;-65
2022/11/29 08:09:14;;;;;;;21.33;12.90;;;9.20;72.00;;;;;;5102518;27;47755;-66
2022/11/29 08:11:40;;;;;;;21.70;11.43;;;9.10;72.10;;;;;;5108439;27;46354;-67
2022/11/29 08:14:05;;;;;;;18.47;12.57;;;9.10;72.00;;;;;;5103731;27;46370;-67
2022/11/29 08:16:32;;;;;;;15.73;11.50;;;9.10;71.80;;;;;;5104701;27;46745;-68
2022/11/29 08:18:57;;;;;;;18.15;13.40;;;9.10;71.80;;;;;;5106753;27;46561;-66
2022/11/29 08:21:23;;;;;;;16.50;11.90;;;9.00;71.70;;;;;;5107550;27;46477;-67
2022/11/29 08:23:49;;;;;;;20.90;13.00;;;8.90;72.00;;;;;;5108183;27;46510;-64
2022/11/29 08:26:16;;;;;;;24.50;18.08;;;8.90;72.00;;;;;;5107278;27;46375;-66
2022/11/29 08:28:43;;;;;;;23.90;15.53;;;8.80;71.80;;;;;;5108473;27;47597;-65
2022/11/29 08:31:11;;;;;;;21.17;15.10;;;8.70;72.70;;;;;;5110521;27;45826;-65
2022/11/29 08:33:38;;;;;;;22.10;14.13;;;8.70;72.70;;;;;;5108753;27;46418;-66
2022/11/29 08:36:12;;;;;;;19.87;13.60;;;8.70;71.10;;;;;;5106597;27;46377;-66
2022/11/29 08:38:37;;;;;;;19.47;13.23;;;8.70;72.20;;;;;;5106261;27;46382;-65
2022/11/29 08:41:04;;;;;;;21.00;14.40;;;8.70;72.20;;;;;;5109622;27;46488;-65
2022/11/29 08:43:30;;;;;;;26.07;14.83;;;8.70;72.10;;;;;;5106033;27;46073;-64
2022/11/29 08:45:57;;;;;;;21.27;14.73;;;8.70;71.00;;;;;;5106013;27;46417;-66
2022/11/29 08:48:23;;;;;;;20.70;13.23;;;8.70;72.00;;;;;;5104163;27;46523;-65
2022/11/29 08:50:50;;;;;;;21.40;14.23;;;8.60;72.10;;;;;;5108861;27;46445;-68
2022/11/29 08:56:00;;;;;;;21.77;13.73;;;8.80;70.40;;;;;;5103295;27;46284;-66
2022/11/29 08:58:26;;;;;;;21.87;14.50;;;8.80;71.50;;;;;;5105964;27;46400;-67
2022/11/29 09:00:52;;;;;;;23.33;13.23;;;8.90;71.20;;;;;;5109424;27;46490;-65
2022/11/29 09:06:08;;;;;;;22.30;14.20;;;8.90;70.80;;;;;;5106349;27;46712;-65
2022/11/29 09:08:33;;;;;;;22.43;14.40;;;9.00;70.80;;;;;;5107832;27;46408;-66
2022/11/29 09:10:59;;;;;;;26.50;13.83;;;9.00;70.80;;;;;;5107788;27;46476;-65
2022/11/29 09:13:25;;;;;;;19.43;13.00;;;8.90;71.10;;;;;;5106823;27;45931;-66
2022/11/29 09:15:51;;;;;;;22.10;15.00;;;8.90;70.00;;;;;;5103616;27;46554;-66
2022/11/29 09:18:16;;;;;;;19.70;13.57;;;8.90;71.10;;;;;;5103695;27;47091;-65
2022/11/29 09:20:43;;;;;;;20.40;13.63;;;9.10;71.20;;;;;;5105173;27;45903;-66
2022/11/29 09:23:08;;;;;;;18.70;11.80;;;9.00;71.10;;;;;;5108568;27;46719;-67
2022/11/29 09:25:34;;;;;;;20.17;12.83;;;8.90;71.50;;;;;;5102960;27;46536;-66
2022/11/29 09:28:01;;;;;;;17.40;12.90;;;9.00;71.50;;;;;;5101794;27;47247;-66
2022/11/29 09:30:30;;;;;;;18.27;11.70;;;9.10;71.10;;;;;;5106939;27;46418;-65
2022/11/29 09:32:59;;;;;;;16.00;11.13;;;9.00;71.20;;;;;;5104934;27;46449;-67
2022/11/29 09:35:25;;;;;;;14.27;10.10;;;8.90;71.30;;;;;;5109486;27;46461;-67
2022/11/29 09:37:50;;;;;;;15.87;11.07;;;9.00;71.50;;;;;;5105738;27;46498;-66
2022/11/29 09:40:26;;;;;;;18.90;11.20;;;9.10;71.20;;;;;;5104619;27;46234;-66
2022/11/29 09:43:24;;;;;;;17.23;11.10;;;9.10;71.20;;;;;;5106498;27;46337;-66
2022/11/29 09:46:00;;;;;;;15.50;10.50;;;9.00;70.50;;;;;;5104147;27;46440;-66
2022/11/29 09:48:42;;;;;;;14.17;9.30;;;9.00;71.50;;;;;;5104722;27;48275;-66
2022/11/29 09:51:27;;;;;;;13.90;9.23;;;8.90;71.40;;;;;;5101671;27;46350;-65
2022/11/29 09:53:55;;;;;;;14.43;9.30;;;8.80;71.60;;;;;;5105932;27;46455;-66
2022/11/29 09:56:49;;;;;;;13.87;8.63;;;8.80;71.80;;;;;;5108659;27;46330;-66
2022/11/29 09:59:24;;;;;;;15.00;9.77;;;8.80;71.80;;;;;;5102566;27;46517;-66
2022/11/29 10:01:57;;;;;;;16.23;11.10;;;9.00;71.30;;;;;;5103685;27;46234;-66
2022/11/29 10:04:31;;;;;;;14.10;9.80;;;8.90;71.60;;;;;;5105081;27;46325;-66
2022/11/29 10:07:02;;;;;;;16.40;10.00;;;8.80;71.60;;;;;;5106318;27;46340;-67
2022/11/29 10:09:52;;;;;;;11.43;8.43;;;8.80;71.60;;;;;;5103504;27;46897;-66
2022/11/29 10:12:44;;;;;;;17.60;9.37;;;8.80;71.70;;;;;;5100341;27;46333;-65
2022/11/29 10:15:15;;;;;;;12.60;8.60;;;8.80;71.70;;;;;;5103962;27;46546;-66
2022/11/29 10:17:48;;;;;;;15.40;9.33;;;8.80;71.60;;;;;;5109682;27;46537;-66
2022/11/29 10:20:19;;;;;;;16.57;9.10;;;8.80;72.80;;;;;;5102891;27;49531;-66
2022/11/29 10:22:54;;;;;;;22.33;9.80;;;8.80;71.70;;;;;;5107575;27;46710;-67
2022/11/29 10:25:27;;;;;;;15.63;9.30;;;8.80;71.50;;;;;;5104191;27;46696;-65
2022/11/29 10:27:53;;;;;;;20.07;10.20;;;8.90;71.50;;;;;;5104702;27;46423;-67
2022/11/29 10:30:19;;;;;;;16.90;9.43;;;8.90;71.60;;;;;;5102044;27;47418;-65
2022/11/29 10:32:49;;;;;;;13.60;8.80;;;8.90;71.50;;;;;;5106611;27;46600;-67
2022/11/29 10:35:18;;;;;;;11.50;7.87;;;8.90;71.50;;;;;;5102419;27;45820;-65
2022/11/29 10:37:44;;;;;;;14.17;8.93;;;8.90;71.60;;;;;;5106002;27;46562;-66
2022/11/29 10:40:16;;;;;;;13.07;8.67;;;9.00;71.40;;;;;;5107141;27;46148;-68
2022/11/29 10:42:48;;;;;;;12.00;7.70;;;9.00;71.10;;;;;;5108106;27;46603;-67
2022/11/29 10:45:23;;;;;;;14.37;7.80;;;8.90;70.60;;;;;;5106836;27;46403;-66
2022/11/29 10:47:51;;;;;;;11.97;8.00;;;8.90;71.70;;;;;;5105919;27;46557;-66
2022/11/29 10:50:25;;;;;;;14.83;8.93;;;9.00;71.60;;;;;;5105342;27;46585;-66
2022/11/29 10:52:54;;;;;;;13.77;7.90;;;9.10;71.40;;;;;;5102957;27;46565;-66
2022/11/29 10:55:21;;;;;;;15.27;8.80;;;9.00;71.30;;;;;;5104470;27;46445;-67
2022/11/29 10:58:11;;;;;;;18.57;9.60;;;9.10;71.40;;;;;;5136117;27;46123;-68
2022/11/29 11:00:52;;;;;;;22.63;11.87;;;9.10;71.10;;;;;;5104850;27;46449;-66
2022/11/29 11:03:27;;;;;;;17.60;10.93;;;9.10;71.30;;;;;;5103509;27;45900;-68
2022/11/29 11:06:15;;;;;;;16.10;10.80;;;8.70;71.10;;;;;;5102761;27;46442;-66
2022/11/29 11:08:44;;;;;;;20.30;10.90;;;8.70;72.10;;;;;;5105024;27;46411;-66
2022/11/29 11:11:11;;;;;;;17.67;10.80;;;8.70;72.10;;;;;;5103607;27;46696;-65
2022/11/29 11:13:38;;;;;;;17.00;10.27;;;8.80;72.00;;;;;;5107937;27;46443;-65
2022/11/29 11:16:09;;;;;;;16.77;10.87;;;8.90;70.60;;;;;;5100531;27;45871;-67
2022/11/29 11:18:36;;;;;;;18.67;10.97;;;9.00;71.60;;;;;;5103718;27;45902;-66
2022/11/29 11:21:06;;;;;;;17.73;9.93;;;9.00;71.10;;;;;;5103566;27;46418;-66
2022/11/29 11:23:35;;;;;;;18.03;11.30;;;9.20;71.00;;;;;;5104147;27;46514;-66
2022/11/29 11:26:07;;;;;;;16.47;9.13;;;9.00;70.20;;;;;;5106256;27;46414;-66
2022/11/29 11:28:37;;;;;;;21.83;10.07;;;9.10;72.50;;;;;;5102130;27;45927;-67
2022/11/29 11:31:08;;;;;;;16.10;9.60;;;9.20;71.20;;;;;;5103466;27;46321;-67
2022/11/29 11:33:37;;;;;;;14.57;8.87;;;9.30;70.90;;;;;;5104805;27;46383;-66
2022/11/29 11:36:12;;;;;;;15.23;9.07;;;9.30;70.80;;;;;;5103585;27;46467;-68
2022/11/29 11:38:40;;;;;;;15.70;9.23;;;9.20;71.10;;;;;;5105181;27;46505;-68
2022/11/29 11:41:15;;;;;;;20.50;11.90;;;9.30;71.00;;;;;;5102574;27;46503;-68
2022/11/29 11:43:41;;;;;;;14.07;9.50;;;9.30;70.80;;;;;;5105792;27;46413;-64
2022/11/29 11:46:07;;;;;;;17.40;11.10;;;9.30;70.90;;;;;;5105730;27;45984;-67
2022/11/29 11:48:33;;;;;;;22.03;14.77;;;9.30;71.10;;;;;;5103429;27;46460;-67
2022/11/29 11:51:00;;;;;;;20.83;10.93;;;9.20;71.10;;;;;;5103356;27;46306;-65
2022/11/29 11:53:35;;;;;;;16.27;8.97;;;9.20;71.10;;;;;;5106323;27;45981;-64
2022/11/29 11:56:02;;;;;;;21.37;13.50;;;9.10;70.30;;;;;;5108173;27;45865;-68
2022/11/29 11:58:31;;;;;;;11.30;7.40;;;9.10;71.20;;;;;;5107480;27;45980;-65
2022/11/29 12:01:23;;;;;;;10.50;7.37;;;9.10;71.40;;;;;;5106458;27;46507;-65
2022/11/29 12:03:58;;;;;;;14.40;8.57;;;9.00;71.70;;;;;;5108771;27;46383;-64
2022/11/29 12:06:42;;;;;;;17.80;9.10;;;8.90;71.80;;;;;;5110055;27;46367;-66
2022/11/29 12:09:07;;;;;;;12.70;8.93;;;8.80;72.00;;;;;;5103998;27;46637;-66
2022/11/29 12:11:49;;;;;;;17.33;10.73;;;8.80;72.10;;;;;;5107370;27;46709;-65
2022/11/29 12:14:27;;;;;;;12.47;8.83;;;8.80;72.00;;;;;;5110311;27;45937;-66
2022/11/29 12:17:02;;;;;;;15.93;9.70;;;8.90;71.60;;;;;;5108481;27;46288;-64
2022/11/29 12:19:34;;;;;;;16.90;11.65;;;8.90;71.60;;;;;;5104355;27;46406;-66
2022/11/29 12:22:05;;;;;;;17.05;11.50;;;8.90;71.30;;;;;;5105707;27;46501;-65
2022/11/29 12:24:37;;;;;;;18.60;10.87;;;8.90;71.60;;;;;;5107493;27;46316;-66
2022/11/29 12:27:04;;;;;;;16.97;9.20;;;9.00;71.80;;;;;;5107569;27;46558;-67
2022/11/29 12:29:33;;;;;;;18.23;9.87;;;9.00;71.70;;;;;;5105777;27;46398;-66
2022/11/29 12:32:37;;;;;;;14.27;9.30;;;9.00;71.50;;;;;;5105583;27;48271;-65
2022/11/29 12:35:53;;;;;;;10.80;7.20;;;9.00;71.20;;;;;;5065977;27;46033;-67
2022/11/29 12:38:25;;;;;;;9.20;6.27;;;9.00;71.20;;;;;;5079378;27;46440;-67
2022/11/29 12:41:19;;;;;;;10.20;7.00;;;9.00;71.40;;;;;;5108842;27;46780;-65
2022/11/29 12:44:05;;;;;;;9.63;6.83;;;8.90;71.60;;;;;;5104537;27;47074;-66
2022/11/29 12:46:32;;;;;;;11.70;6.97;;;8.90;71.50;;;;;;5120654;27;47169;-64
2022/11/29 12:49:22;;;;;;;7.67;5.27;;;8.80;71.70;;;;;;5103959;27;46530;-66
2022/11/29 12:51:59;;;;;;;6.40;4.83;;;8.80;71.80;;;;;;5107206;27;46294;-65
2022/11/29 12:54:37;;;;;;;12.53;4.33;;;8.70;72.00;;;;;;5103975;27;47186;-67
2022/11/29 12:57:40;;;;;;;6.00;3.43;;;8.90;71.60;;;;;;5103002;27;46315;-66
2022/11/29 13:00:11;;;;;;;5.40;3.43;;;8.90;71.30;;;;;;5104998;27;46502;-64
2022/11/29 13:03:14;;;;;;;6.90;4.10;;;8.90;71.30;;;;;;5105716;27;46526;-66
2022/11/29 13:06:04;;;;;;;6.87;4.50;;;9.00;71.20;;;;;;5104106;27;46017;-67
2022/11/29 13:08:52;;;;;;;5.50;3.60;;;9.00;71.10;;;;;;5104205;27;46383;-68
2022/11/29 13:11:43;;;;;;;7.60;4.40;;;8.90;71.20;;;;;;5108445;27;46669;-66
2022/11/29 13:14:45;;;;;;;6.00;3.57;;;8.90;71.30;;;;;;5108235;27;46044;-67
2022/11/29 13:17:37;;;;;;;4.40;3.13;;;8.90;71.50;;;;;;5096850;27;46426;-66
2022/11/29 13:20:30;;;;;;;7.53;4.83;;;8.90;71.50;;;;;;5107357;27;46818;-66
2022/11/29 13:23:21;;;;;;;6.27;3.37;;;9.00;71.00;;;;;;5110427;27;45934;-67
2022/11/29 13:25:50;;;;;;;5.10;3.67;;;9.10;70.50;;;;;;5101944;27;46089;-68
2022/11/29 13:28:27;;;;;;;5.10;3.90;;;9.00;70.80;;;;;;5102028;27;47046;-68
2022/11/29 13:31:00;;;;;;;4.33;3.50;;;9.00;70.80;;;;;;5107859;27;46359;-66
2022/11/29 13:33:35;;;;;;;4.63;3.60;;;8.90;71.20;;;;;;5108212;27;46649;-66
2022/11/29 13:36:28;;;;;;;3.60;2.50;;;8.80;70.10;;;;;;5109626;27;46395;-66
2022/11/29 13:39:30;;;;;;;4.37;3.20;;;8.80;71.30;;;;;;5102759;27;46375;-67
2022/11/29 13:42:18;;;;;;;8.80;5.83;;;8.90;71.00;;;;;;5104985;27;46706;-66